<?xml version="1.0" encoding="UTF-8" standalone="no" ?>
<gpx xmlns="http://www.topografix.com/GPX/1/1" xmlns:xsi="http://www.w3.org/2001/XMLSchema-instance" xsi:schemaLocation="http://www.topografix.com/GPX/1/1 http://www.topografix.com/GPX/1/1/gpx.xsd" version="1.1" creator="VisuGPX - https://www.visugpx.com">
  <metadata>
    <name>Rando LN</name>
  </metadata>
  <trk>
    <name><![CDATA[Saint Germain du Teil]]></name>
    <extensions>
      <line xmlns="http://www.topografix.com/GPX/gpx_style/0/2">
        <color>0000FF</color>
        <width>4</width>
      </line>
    </extensions>
    <trkseg>
      <trkpt lat="44.52629" lon="3.1709">
        <ele>1084.262</ele>
        <time>2019-07-07T15:57:10Z</time>
      </trkpt>
      <trkpt lat="44.52629" lon="3.1709">
        <ele>1084.262</ele>
        <time>2019-07-07T15:57:10Z</time>
      </trkpt>
      <trkpt lat="44.52629" lon="3.1709">
        <ele>1084.262</ele>
        <time>2019-07-07T15:57:10Z</time>
      </trkpt>
      <trkpt lat="44.52629" lon="3.1709">
        <ele>1084.262</ele>
        <time>2019-07-07T15:57:10Z</time>
      </trkpt>
      <trkpt lat="44.52548" lon="3.17118">
        <ele>1077.908</ele>
        <time>2019-07-07T15:57:30Z</time>
      </trkpt>
      <trkpt lat="44.52503" lon="3.17122">
        <ele>1076.008</ele>
        <time>2019-07-07T15:57:50Z</time>
      </trkpt>
      <trkpt lat="44.52432" lon="3.17169">
        <ele>1072.076</ele>
        <time>2019-07-07T15:58:10Z</time>
      </trkpt>
      <trkpt lat="44.52354" lon="3.17169">
        <ele>1073.47</ele>
        <time>2019-07-07T15:58:30Z</time>
      </trkpt>
      <trkpt lat="44.52278" lon="3.17117">
        <ele>1077.464</ele>
        <time>2019-07-07T15:58:50Z</time>
      </trkpt>
      <trkpt lat="44.52241" lon="3.1711">
        <ele>1079.571</ele>
        <time>2019-07-07T15:59:10Z</time>
      </trkpt>
      <trkpt lat="44.52163" lon="3.17069">
        <ele>1083.655</ele>
        <time>2019-07-07T15:59:30Z</time>
      </trkpt>
      <trkpt lat="44.5206" lon="3.1708">
        <ele>1084.872</ele>
        <time>2019-07-07T15:59:50Z</time>
      </trkpt>
      <trkpt lat="44.52022" lon="3.17076">
        <ele>1087.511</ele>
        <time>2019-07-07T16:00:10Z</time>
      </trkpt>
      <trkpt lat="44.51919" lon="3.17104">
        <ele>1091.367</ele>
        <time>2019-07-07T16:00:30Z</time>
      </trkpt>
      <trkpt lat="44.5181" lon="3.17117">
        <ele>1097.251</ele>
        <time>2019-07-07T16:00:50Z</time>
      </trkpt>
      <trkpt lat="44.51733" lon="3.17085">
        <ele>1099.901</ele>
        <time>2019-07-07T16:01:10Z</time>
      </trkpt>
      <trkpt lat="44.51657" lon="3.17106">
        <ele>1098.711</ele>
        <time>2019-07-07T16:01:30Z</time>
      </trkpt>
      <trkpt lat="44.51595" lon="3.17108">
        <ele>1100.008</ele>
        <time>2019-07-07T16:01:50Z</time>
      </trkpt>
      <trkpt lat="44.51539" lon="3.17134">
        <ele>1093.039</ele>
        <time>2019-07-07T16:02:10Z</time>
      </trkpt>
      <trkpt lat="44.51441" lon="3.17129">
        <ele>1083.633</ele>
        <time>2019-07-07T16:02:30Z</time>
      </trkpt>
      <trkpt lat="44.5141" lon="3.17103">
        <ele>1079.837</ele>
        <time>2019-07-07T16:02:50Z</time>
      </trkpt>
      <trkpt lat="44.51407" lon="3.17066">
        <ele>1079.474</ele>
        <time>2019-07-07T16:03:10Z</time>
      </trkpt>
      <trkpt lat="44.51383" lon="3.17036">
        <ele>1076.968</ele>
        <time>2019-07-07T16:03:30Z</time>
      </trkpt>
      <trkpt lat="44.51339" lon="3.17014">
        <ele>1071.615</ele>
        <time>2019-07-07T16:03:50Z</time>
      </trkpt>
      <trkpt lat="44.51289" lon="3.16951">
        <ele>1059.734</ele>
        <time>2019-07-07T16:04:10Z</time>
      </trkpt>
      <trkpt lat="44.51201" lon="3.16888">
        <ele>1039.56</ele>
        <time>2019-07-07T16:04:30Z</time>
      </trkpt>
      <trkpt lat="44.51147" lon="3.16873">
        <ele>1032.328</ele>
        <time>2019-07-07T16:04:50Z</time>
      </trkpt>
      <trkpt lat="44.51109" lon="3.16839">
        <ele>1023.989</ele>
        <time>2019-07-07T16:05:10Z</time>
      </trkpt>
      <trkpt lat="44.51084" lon="3.16834">
        <ele>1022.017</ele>
        <time>2019-07-07T16:05:30Z</time>
      </trkpt>
      <trkpt lat="44.5105" lon="3.16818">
        <ele>1016.908</ele>
        <time>2019-07-07T16:05:50Z</time>
      </trkpt>
      <trkpt lat="44.51014" lon="3.16808">
        <ele>1011.636</ele>
        <time>2019-07-07T16:06:10Z</time>
      </trkpt>
      <trkpt lat="44.50934" lon="3.16716">
        <ele>996.18</ele>
        <time>2019-07-07T16:06:30Z</time>
      </trkpt>
      <trkpt lat="44.50925" lon="3.16676">
        <ele>991.044</ele>
        <time>2019-07-07T16:06:50Z</time>
      </trkpt>
      <trkpt lat="44.50878" lon="3.16637">
        <ele>988.261</ele>
        <time>2019-07-07T16:07:10Z</time>
      </trkpt>
      <trkpt lat="44.50842" lon="3.16581">
        <ele>980.925</ele>
        <time>2019-07-07T16:07:30Z</time>
      </trkpt>
      <trkpt lat="44.50817" lon="3.16608">
        <ele>979.932</ele>
        <time>2019-07-07T16:07:50Z</time>
      </trkpt>
      <trkpt lat="44.50802" lon="3.16679">
        <ele>983.741</ele>
        <time>2019-07-07T16:08:10Z</time>
      </trkpt>
      <trkpt lat="44.50814" lon="3.16789">
        <ele>983.787</ele>
        <time>2019-07-07T16:08:30Z</time>
      </trkpt>
      <trkpt lat="44.50711" lon="3.16803">
        <ele>979.971</ele>
        <time>2019-07-07T16:08:50Z</time>
      </trkpt>
      <trkpt lat="44.50584" lon="3.16794">
        <ele>974.541</ele>
        <time>2019-07-07T16:09:10Z</time>
      </trkpt>
      <trkpt lat="44.50528" lon="3.16806">
        <ele>970.115</ele>
        <time>2019-07-07T16:09:30Z</time>
      </trkpt>
      <trkpt lat="44.50368" lon="3.16873">
        <ele>962.108</ele>
        <time>2019-07-07T16:09:50Z</time>
      </trkpt>
      <trkpt lat="44.50333" lon="3.1692">
        <ele>966.561</ele>
        <time>2019-07-07T16:10:10Z</time>
      </trkpt>
      <trkpt lat="44.50262" lon="3.16974">
        <ele>968.855</ele>
        <time>2019-07-07T16:10:30Z</time>
      </trkpt>
      <trkpt lat="44.50223" lon="3.16968">
        <ele>969.949</ele>
        <time>2019-07-07T16:10:50Z</time>
      </trkpt>
      <trkpt lat="44.50143" lon="3.16939">
        <ele>971.176</ele>
        <time>2019-07-07T16:11:10Z</time>
      </trkpt>
      <trkpt lat="44.49998" lon="3.16925">
        <ele>956.57</ele>
        <time>2019-07-07T16:11:30Z</time>
      </trkpt>
      <trkpt lat="44.49857" lon="3.16888">
        <ele>945.437</ele>
        <time>2019-07-07T16:11:50Z</time>
      </trkpt>
      <trkpt lat="44.49782" lon="3.16853">
        <ele>933.046</ele>
        <time>2019-07-07T16:12:10Z</time>
      </trkpt>
      <trkpt lat="44.49728" lon="3.16838">
        <ele>923.072</ele>
        <time>2019-07-07T16:12:30Z</time>
      </trkpt>
      <trkpt lat="44.49679" lon="3.16784">
        <ele>914.628</ele>
        <time>2019-07-07T16:12:50Z</time>
      </trkpt>
      <trkpt lat="44.49495" lon="3.16782">
        <ele>901.089</ele>
        <time>2019-07-07T16:13:10Z</time>
      </trkpt>
      <trkpt lat="44.49408" lon="3.16759">
        <ele>897.117</ele>
        <time>2019-07-07T16:13:30Z</time>
      </trkpt>
      <trkpt lat="44.49327" lon="3.16745">
        <ele>894.408</ele>
        <time>2019-07-07T16:13:50Z</time>
      </trkpt>
      <trkpt lat="44.49284" lon="3.16714">
        <ele>892.826</ele>
        <time>2019-07-07T16:14:10Z</time>
      </trkpt>
      <trkpt lat="44.49243" lon="3.16641">
        <ele>883.61</ele>
        <time>2019-07-07T16:14:30Z</time>
      </trkpt>
      <trkpt lat="44.49181" lon="3.16602">
        <ele>871.744</ele>
        <time>2019-07-07T16:14:50Z</time>
      </trkpt>
      <trkpt lat="44.49112" lon="3.16724">
        <ele>866.151</ele>
        <time>2019-07-07T16:15:10Z</time>
      </trkpt>
      <trkpt lat="44.4909" lon="3.16831">
        <ele>860.175</ele>
        <time>2019-07-07T16:15:30Z</time>
      </trkpt>
      <trkpt lat="44.49102" lon="3.16909">
        <ele>858.162</ele>
        <time>2019-07-07T16:15:50Z</time>
      </trkpt>
      <trkpt lat="44.49054" lon="3.16921">
        <ele>848.521</ele>
        <time>2019-07-07T16:16:10Z</time>
      </trkpt>
      <trkpt lat="44.4901" lon="3.16951">
        <ele>840.647</ele>
        <time>2019-07-07T16:16:30Z</time>
      </trkpt>
      <trkpt lat="44.49012" lon="3.17008">
        <ele>837.913</ele>
        <time>2019-07-07T16:16:50Z</time>
      </trkpt>
      <trkpt lat="44.48938" lon="3.17219">
        <ele>817.743</ele>
        <time>2019-07-07T16:17:10Z</time>
      </trkpt>
      <trkpt lat="44.48907" lon="3.17202">
        <ele>816.807</ele>
        <time>2019-07-07T16:17:30Z</time>
      </trkpt>
      <trkpt lat="44.48924" lon="3.17235">
        <ele>816.108</ele>
        <time>2019-07-07T16:17:50Z</time>
      </trkpt>
      <trkpt lat="44.48879" lon="3.17254">
        <ele>811.555</ele>
        <time>2019-07-07T16:18:10Z</time>
      </trkpt>
      <trkpt lat="44.48873" lon="3.17271">
        <ele>809.999</ele>
        <time>2019-07-07T16:18:30Z</time>
      </trkpt>
      <trkpt lat="44.48873" lon="3.1732">
        <ele>804.443</ele>
        <time>2019-07-07T16:18:50Z</time>
      </trkpt>
      <trkpt lat="44.48844" lon="3.17406">
        <ele>790.78</ele>
        <time>2019-07-07T16:19:10Z</time>
      </trkpt>
      <trkpt lat="44.4884" lon="3.17442">
        <ele>788.964</ele>
        <time>2019-07-07T16:19:30Z</time>
      </trkpt>
      <trkpt lat="44.48826" lon="3.17439">
        <ele>788.981</ele>
        <time>2019-07-07T16:19:50Z</time>
      </trkpt>
      <trkpt lat="44.48808" lon="3.17398">
        <ele>788.89</ele>
        <time>2019-07-07T16:20:10Z</time>
      </trkpt>
      <trkpt lat="44.48663" lon="3.17289">
        <ele>790.916</ele>
        <time>2019-07-07T16:20:30Z</time>
      </trkpt>
      <trkpt lat="44.48573" lon="3.17282">
        <ele>776.947</ele>
        <time>2019-07-07T16:20:50Z</time>
      </trkpt>
      <trkpt lat="44.48495" lon="3.1721">
        <ele>786.029</ele>
        <time>2019-07-07T16:21:10Z</time>
      </trkpt>
      <trkpt lat="44.48434" lon="3.17186">
        <ele>790.121</ele>
        <time>2019-07-07T16:21:30Z</time>
      </trkpt>
      <trkpt lat="44.48318" lon="3.17087">
        <ele>779.408</ele>
        <time>2019-07-07T16:21:50Z</time>
      </trkpt>
      <trkpt lat="44.48281" lon="3.17033">
        <ele>778.088</ele>
        <time>2019-07-07T16:22:10Z</time>
      </trkpt>
      <trkpt lat="44.48202" lon="3.17">
        <ele>782.892</ele>
        <time>2019-07-07T16:22:30Z</time>
      </trkpt>
      <trkpt lat="44.48132" lon="3.17023">
        <ele>787.086</ele>
        <time>2019-07-07T16:22:50Z</time>
      </trkpt>
      <trkpt lat="44.48104" lon="3.16987">
        <ele>791.933</ele>
        <time>2019-07-07T16:23:10Z</time>
      </trkpt>
      <trkpt lat="44.48077" lon="3.17011">
        <ele>791.677</ele>
        <time>2019-07-07T16:23:30Z</time>
      </trkpt>
      <trkpt lat="44.48038" lon="3.17056">
        <ele>792.974</ele>
        <time>2019-07-07T16:23:50Z</time>
      </trkpt>
      <trkpt lat="44.48035" lon="3.1708">
        <ele>793.883</ele>
        <time>2019-07-07T16:24:10Z</time>
      </trkpt>
      <trkpt lat="44.47995" lon="3.17072">
        <ele>797.169</ele>
        <time>2019-07-07T16:24:30Z</time>
      </trkpt>
      <trkpt lat="44.47984" lon="3.17075">
        <ele>797.431</ele>
        <time>2019-07-07T16:24:50Z</time>
      </trkpt>
      <trkpt lat="44.47953" lon="3.17056">
        <ele>797.761</ele>
        <time>2019-07-07T16:25:10Z</time>
      </trkpt>
      <trkpt lat="44.47865" lon="3.17068">
        <ele>798.807</ele>
        <time>2019-07-07T16:25:30Z</time>
      </trkpt>
    </trkseg>
  </trk>
</gpx>